createdAt,value
2018-11-27T00:00:23.105Z,1.80
2018-11-27T00:02:53.156Z,1.80
2018-11-27T00:05:21.335Z,1.80
2018-11-27T00:07:49.514Z,1.80
2018-11-27T00:10:17.720Z,1.80
2018-11-27T00:12:45.885Z,1.80
2018-11-27T00:15:14.081Z,1.80
2018-11-27T00:17:42.256Z,1.80
2018-11-27T00:20:12.773Z,1.70
2018-11-27T00:22:41.067Z,1.70
2018-11-27T00:25:13.488Z,1.70
2018-11-27T00:27:41.670Z,1.70
2018-11-27T00:30:17.984Z,1.70
2018-11-27T00:32:46.178Z,1.70
2018-11-27T00:35:15.829Z,1.70
2018-11-27T00:37:44.009Z,1.70
2018-11-27T00:40:21.320Z,1.70
2018-11-27T00:42:49.612Z,1.70
2018-11-27T00:45:18.876Z,1.70
2018-11-27T00:47:48.013Z,1.70
2018-11-27T00:50:18.665Z,1.70
2018-11-27T00:52:47.166Z,1.70
2018-11-27T00:55:17.349Z,1.70
2018-11-27T00:57:46.856Z,1.70
2018-11-27T01:00:21.051Z,1.70
2018-11-27T01:02:49.250Z,1.70
2018-11-27T01:05:19.080Z,1.70
2018-11-27T01:07:47.446Z,1.70
2018-11-27T01:10:16.966Z,1.70
2018-11-27T01:12:45.189Z,1.70
2018-11-27T01:15:14.597Z,1.70
2018-11-27T01:17:49.089Z,1.70
2018-11-27T01:20:18.454Z,1.70
2018-11-27T01:22:46.983Z,1.70
2018-11-27T01:25:15.137Z,1.70
2018-11-27T01:27:43.320Z,1.70
2018-11-27T01:30:17.916Z,1.70
2018-11-27T01:32:47.484Z,1.60
2018-11-27T01:35:18.032Z,1.60
2018-11-27T01:37:50.734Z,1.50
2018-11-27T01:40:23.731Z,1.40
2018-11-27T01:42:53.830Z,1.40
2018-11-27T01:45:22.513Z,1.30
2018-11-27T01:47:50.962Z,1.30
2018-11-27T01:50:20.276Z,1.40
2018-11-27T01:52:48.650Z,1.40
2018-11-27T01:55:20.445Z,1.40
2018-11-27T01:58:21.829Z,1.40
2018-11-27T02:00:50.001Z,1.40
2018-11-27T02:03:18.180Z,1.50
2018-11-27T02:05:53.898Z,1.50
2018-11-27T02:08:22.216Z,1.50
2018-11-27T02:10:50.406Z,1.60
2018-11-27T02:13:21.299Z,1.60
2018-11-27T02:15:49.640Z,1.60
2018-11-27T02:18:19.259Z,1.60
2018-11-27T02:20:49.473Z,1.60
2018-11-27T02:23:19.627Z,1.60
2018-11-27T02:25:48.114Z,1.60
2018-11-27T02:28:17.950Z,1.60
2018-11-27T02:30:46.124Z,1.60
2018-11-27T02:33:14.478Z,1.60
2018-11-27T02:35:43.187Z,1.60
2018-11-27T02:38:11.377Z,1.60
2018-11-27T02:40:39.541Z,1.60
2018-11-27T02:43:07.746Z,1.50
2018-11-27T02:45:35.944Z,1.50
2018-11-27T02:48:04.296Z,1.40
2018-11-27T02:50:32.493Z,1.40
2018-11-27T02:53:00.644Z,1.40
2018-11-27T02:55:28.832Z,1.50
2018-11-27T02:57:57.205Z,1.50
2018-11-27T03:00:26.635Z,1.40
2018-11-27T03:02:54.962Z,1.40
2018-11-27T03:05:31.145Z,1.40
2018-11-27T03:07:59.297Z,1.40
2018-11-27T03:10:27.480Z,1.40
2018-11-27T03:12:55.672Z,1.40
2018-11-27T03:15:23.832Z,1.30
2018-11-27T03:17:52.010Z,1.30
2018-11-27T03:20:20.186Z,1.30
2018-11-27T03:22:48.337Z,1.30
2018-11-27T03:25:17.736Z,1.30
2018-11-27T03:27:46.721Z,1.30
2018-11-27T03:30:16.157Z,1.30
2018-11-27T03:32:45.170Z,1.30
2018-11-27T03:35:17.868Z,1.30
2018-11-27T03:37:47.348Z,1.20
2018-11-27T03:40:15.677Z,1.20
2018-11-27T03:42:43.857Z,1.20
2018-11-27T03:45:13.182Z,1.20
2018-11-27T03:47:41.345Z,1.20
2018-11-27T03:50:11.878Z,1.20
2018-11-27T03:52:40.050Z,1.20
2018-11-27T03:55:09.589Z,1.20
2018-11-27T03:57:37.863Z,1.20
2018-11-27T04:00:30.002Z,1.20
2018-11-27T04:03:08.789Z,1.20
2018-11-27T04:05:37.238Z,1.20
2018-11-27T04:08:06.860Z,1.20
2018-11-27T04:10:35.109Z,1.20
2018-11-27T04:13:03.286Z,1.20
2018-11-27T04:15:31.486Z,1.10
2018-11-27T04:17:59.863Z,1.10
2018-11-27T04:20:28.019Z,1.10
2018-11-27T04:22:56.201Z,1.10
2018-11-27T04:25:24.382Z,1.10
2018-11-27T04:27:52.539Z,1.00
2018-11-27T04:30:21.553Z,1.00
2018-11-27T04:32:50.288Z,1.00
2018-11-27T04:35:19.833Z,1.00
2018-11-27T04:37:48.208Z,1.00
2018-11-27T04:40:17.324Z,1.00
2018-11-27T04:42:45.691Z,1.10
2018-11-27T04:45:23.719Z,1.10
2018-11-27T04:47:51.887Z,1.00
2018-11-27T04:50:20.327Z,1.00
2018-11-27T04:52:48.531Z,1.00
2018-11-27T04:55:19.905Z,1.00
2018-11-27T04:57:48.064Z,1.00
2018-11-27T05:00:19.480Z,1.00
2018-11-27T05:02:47.662Z,1.00
2018-11-27T05:05:16.135Z,1.00
2018-11-27T05:07:44.321Z,0.90
2018-11-27T05:10:13.492Z,0.90
2018-11-27T05:12:42.101Z,0.90
2018-11-27T05:15:11.942Z,0.90
2018-11-27T05:17:40.249Z,0.90
2018-11-27T05:20:09.860Z,0.90
2018-11-27T05:22:38.117Z,0.90
2018-11-27T05:25:09.482Z,0.90
2018-11-27T05:27:38.329Z,0.90
2018-11-27T05:30:13.014Z,0.90
2018-11-27T05:32:41.208Z,0.90
2018-11-27T05:35:15.772Z,0.90
2018-11-27T05:37:45.213Z,0.80
2018-11-27T05:40:15.794Z,0.80
2018-11-27T05:42:44.081Z,0.80
2018-11-27T05:45:14.488Z,0.80
2018-11-27T05:47:42.694Z,0.80
2018-11-27T05:50:14.939Z,0.80
2018-11-27T05:52:43.128Z,0.80
2018-11-27T05:55:12.135Z,0.80
2018-11-27T05:57:41.031Z,0.80
2018-11-27T06:00:14.401Z,0.80
2018-11-27T06:02:42.593Z,0.80
2018-11-27T06:05:15.300Z,0.80
2018-11-27T06:07:43.541Z,0.90
2018-11-27T06:10:15.788Z,0.80
2018-11-27T06:12:44.029Z,0.80
2018-11-27T06:15:22.713Z,0.80
2018-11-27T06:17:56.166Z,0.80
2018-11-27T06:20:24.592Z,0.80
2018-11-27T06:22:59.694Z,0.80
2018-11-27T06:25:28.890Z,0.80
2018-11-27T06:28:02.141Z,0.80
2018-11-27T06:30:31.195Z,0.70
2018-11-27T06:32:59.473Z,0.70
2018-11-27T06:35:34.564Z,0.70
2018-11-27T06:38:04.008Z,0.70
2018-11-27T06:40:32.584Z,0.70
2018-11-27T06:43:00.745Z,0.70
2018-11-27T06:45:28.953Z,0.70
2018-11-27T06:47:57.125Z,0.70
2018-11-27T06:50:25.280Z,0.60
2018-11-27T06:52:53.478Z,0.60
2018-11-27T06:55:22.733Z,0.60
2018-11-27T06:57:51.088Z,0.60
2018-11-27T07:00:20.877Z,0.60
2018-11-27T07:02:49.885Z,0.60
2018-11-27T07:05:18.064Z,0.60
2018-11-27T07:07:46.223Z,0.60
2018-11-27T07:10:24.751Z,0.60
2018-11-27T07:12:55.617Z,0.60
2018-11-27T07:15:24.289Z,0.60
2018-11-27T07:17:52.443Z,0.60
2018-11-27T07:20:20.610Z,0.60
2018-11-27T07:22:48.804Z,0.60
2018-11-27T07:25:17.977Z,0.60
2018-11-27T07:27:47.705Z,0.70
2018-11-27T07:30:16.961Z,0.70
2018-11-27T07:32:45.355Z,0.70
2018-11-27T07:35:15.470Z,0.70
2018-11-27T07:37:43.658Z,0.80
2018-11-27T07:40:16.852Z,0.80
2018-11-27T07:42:45.225Z,0.80
2018-11-27T07:45:17.498Z,0.80
2018-11-27T07:47:45.720Z,0.80
2018-11-27T07:50:14.633Z,0.80
2018-11-27T07:52:42.850Z,0.90
2018-11-27T07:55:13.140Z,0.90
2018-11-27T07:57:41.310Z,0.90
2018-11-27T08:00:13.585Z,0.90
2018-11-27T08:02:42.365Z,0.90
2018-11-27T08:05:12.792Z,0.90
2018-11-27T08:07:41.959Z,0.90
2018-11-27T08:10:15.464Z,0.90
2018-11-27T08:12:43.624Z,0.90
2018-11-27T08:15:12.950Z,0.90
2018-11-27T08:17:41.613Z,0.90
2018-11-27T08:20:11.653Z,0.90
2018-11-27T08:22:39.828Z,1.00
2018-11-27T08:25:09.636Z,1.00
2018-11-27T08:27:38.129Z,1.00
2018-11-27T08:30:10.481Z,1.00
2018-11-27T08:32:38.640Z,1.00
2018-11-27T08:35:08.343Z,1.00
2018-11-27T08:37:36.541Z,1.00
2018-11-27T08:40:06.630Z,1.00
2018-11-27T08:42:34.821Z,1.10
2018-11-27T08:45:03.005Z,1.00
2018-11-27T08:47:31.176Z,1.10
2018-11-27T08:50:00.149Z,1.10
2018-11-27T08:52:28.337Z,1.20
2018-11-27T08:54:57.730Z,1.20
2018-11-27T08:57:25.923Z,1.20
2018-11-27T08:59:54.104Z,1.30
2018-11-27T09:02:22.376Z,1.40
2018-11-27T09:04:50.870Z,1.40
2018-11-27T09:07:19.017Z,1.50
2018-11-27T09:09:47.193Z,1.60
2018-11-27T09:12:15.356Z,1.70
2018-11-27T09:14:43.891Z,1.80
2018-11-27T09:17:12.056Z,1.90
2018-11-27T09:19:40.242Z,2.00
2018-11-27T09:22:12.782Z,2.10
2018-11-27T09:24:36.623Z,2.20
2018-11-27T09:27:04.984Z,2.20
2018-11-27T09:29:33.177Z,2.40
2018-11-27T09:32:02.573Z,2.40
2018-11-27T09:34:30.806Z,2.40
2018-11-27T09:37:04.489Z,2.40
2018-11-27T09:39:32.640Z,2.40
2018-11-27T09:42:00.840Z,2.50
2018-11-27T09:44:29.037Z,2.60
2018-11-27T09:46:57.227Z,2.70
2018-11-27T09:49:25.422Z,2.90
2018-11-27T09:51:53.595Z,3.10
2018-11-27T09:54:21.783Z,3.20
2018-11-27T09:56:49.980Z,3.30
2018-11-27T09:59:18.553Z,3.40
2018-11-27T10:01:47.632Z,3.40
2018-11-27T10:04:15.800Z,3.40
2018-11-27T10:06:44.000Z,3.30
2018-11-27T10:09:12.189Z,3.30
2018-11-27T10:11:40.353Z,3.30
2018-11-27T10:14:08.542Z,3.40
2018-11-27T10:16:36.730Z,3.40
2018-11-27T10:19:04.975Z,3.50
2018-11-27T10:21:33.165Z,3.70
2018-11-27T10:24:01.344Z,3.90
2018-11-27T10:26:29.701Z,4.10
2018-11-27T10:28:57.952Z,4.20
2018-11-27T10:31:26.442Z,4.20
2018-11-27T10:33:54.616Z,4.40
2018-11-27T10:36:23.781Z,4.90
2018-11-27T10:38:52.300Z,5.50
2018-11-27T10:41:20.448Z,6.20
2018-11-27T10:43:48.633Z,6.80
2018-11-27T10:46:16.867Z,7.30
2018-11-27T10:48:44.998Z,7.60
2018-11-27T10:51:13.168Z,7.70
2018-11-27T10:53:41.367Z,7.70
2018-11-27T10:56:09.527Z,7.70
2018-11-27T10:58:37.685Z,7.70
2018-11-27T11:01:13.144Z,7.90
2018-11-27T11:03:41.991Z,8.10
2018-11-27T11:06:10.724Z,8.00
2018-11-27T11:08:38.906Z,7.90
2018-11-27T11:11:07.977Z,7.80
2018-11-27T11:13:36.489Z,7.80
2018-11-27T11:16:04.925Z,7.70
2018-11-27T11:18:33.120Z,7.70
2018-11-27T11:21:01.281Z,7.60
2018-11-27T11:23:29.465Z,7.60
2018-11-27T11:25:57.609Z,7.40
2018-11-27T11:28:27.580Z,7.00
2018-11-27T11:30:55.847Z,6.60
2018-11-27T11:33:25.025Z,6.10
2018-11-27T11:35:53.179Z,5.80
2018-11-27T11:38:21.587Z,5.60
2018-11-27T11:40:49.746Z,5.50
2018-11-27T11:43:18.118Z,5.50
2018-11-27T11:45:46.307Z,5.30
2018-11-27T11:48:14.603Z,5.20
2018-11-27T11:50:42.777Z,5.00
2018-11-27T11:53:12.696Z,4.80
2018-11-27T11:55:40.888Z,4.70
2018-11-27T11:58:09.225Z,4.70
2018-11-27T12:00:41.290Z,4.60
2018-11-27T12:03:09.497Z,4.50
2018-11-27T12:05:39.210Z,4.40
2018-11-27T12:08:08.412Z,4.30
2018-11-27T12:10:37.910Z,4.30
2018-11-27T12:13:07.656Z,4.40
2018-11-27T12:15:35.845Z,4.30
2018-11-27T12:18:04.301Z,4.20
2018-11-27T12:20:33.017Z,4.20
2018-11-27T12:23:01.235Z,4.00
2018-11-27T12:25:29.403Z,4.00
2018-11-27T12:27:57.557Z,4.10
2018-11-27T12:30:26.714Z,4.10
2018-11-27T12:32:55.041Z,4.00
2018-11-27T12:35:23.871Z,4.00
2018-11-27T12:37:52.328Z,3.90
2018-11-27T12:40:25.420Z,3.90
2018-11-27T12:42:54.022Z,4.00
2018-11-27T12:45:28.848Z,4.10
2018-11-27T12:47:58.083Z,4.10
2018-11-27T12:50:32.052Z,4.20
2018-11-27T12:53:00.788Z,4.40
2018-11-27T12:55:28.600Z,4.70
2018-11-27T12:57:56.780Z,4.90
2018-11-27T13:00:26.413Z,5.00
2018-11-27T13:02:54.573Z,5.20
2018-11-27T13:05:25.319Z,5.40
2018-11-27T13:07:55.347Z,5.40
2018-11-27T13:10:23.547Z,5.40
2018-11-27T13:12:51.702Z,5.30
2018-11-27T13:15:20.675Z,5.00
2018-11-27T13:17:50.081Z,4.80
2018-11-27T13:20:19.006Z,4.60
2018-11-27T13:22:47.605Z,4.40
2018-11-27T13:25:20.125Z,4.20
2018-11-27T13:27:50.905Z,4.10
2018-11-27T13:30:21.479Z,3.80
2018-11-27T13:32:51.728Z,3.60
2018-11-27T13:35:19.888Z,3.40
2018-11-27T13:37:51.842Z,3.30
2018-11-27T13:40:20.017Z,3.10
2018-11-27T13:42:48.199Z,3.00
2018-11-27T13:45:16.706Z,2.90
2018-11-27T13:47:44.962Z,2.80
2018-11-27T13:50:15.085Z,2.70
2018-11-27T13:52:43.336Z,2.70
2018-11-27T13:55:26.503Z,2.50
2018-11-27T13:57:54.659Z,2.30
2018-11-27T14:00:22.815Z,2.20
2018-11-27T14:02:53.563Z,2.10
2018-11-27T14:05:23.154Z,1.90
2018-11-27T14:07:51.319Z,1.80
2018-11-27T14:10:19.531Z,1.70
2018-11-27T14:12:47.719Z,1.60
2018-11-27T14:15:17.863Z,1.60
2018-11-27T14:17:46.053Z,1.60
2018-11-27T14:20:14.367Z,1.60
2018-11-27T14:22:43.839Z,1.60
2018-11-27T14:25:12.644Z,1.60
2018-11-27T14:27:40.814Z,1.70
2018-11-27T14:30:15.040Z,1.70
2018-11-27T14:32:43.469Z,1.70
2018-11-27T14:35:12.255Z,1.70
2018-11-27T14:37:40.455Z,1.70
2018-11-27T14:40:13.520Z,1.70
2018-11-27T14:42:41.705Z,1.60
2018-11-27T14:45:12.137Z,1.50
2018-11-27T14:47:40.309Z,1.40
2018-11-27T14:50:10.312Z,1.40
2018-11-27T14:52:38.516Z,1.30
2018-11-27T14:55:09.608Z,1.30
2018-11-27T14:57:37.806Z,1.20
2018-11-27T15:00:13.978Z,1.10
2018-11-27T15:02:42.167Z,1.10
2018-11-27T15:05:13.073Z,1.00
2018-11-27T15:07:41.333Z,1.00
2018-11-27T15:10:10.938Z,0.90
2018-11-27T15:12:39.555Z,0.90
2018-11-27T15:15:10.349Z,0.80
2018-11-27T15:17:38.573Z,0.80
2018-11-27T15:20:13.096Z,0.70
2018-11-27T15:22:41.327Z,0.70
2018-11-27T15:25:09.540Z,0.60
2018-11-27T15:27:39.658Z,0.60
2018-11-27T15:30:16.793Z,0.50
2018-11-27T15:32:45.184Z,0.50
2018-11-27T15:35:13.891Z,0.50
2018-11-27T15:37:42.091Z,0.50
2018-11-27T15:40:13.906Z,0.40
2018-11-27T15:42:42.461Z,0.30
2018-11-27T15:45:16.672Z,0.20
2018-11-27T15:47:45.081Z,0.20
2018-11-27T15:50:13.274Z,0.10
2018-11-27T15:52:41.505Z,0.10
2018-11-27T15:55:20.592Z,0.00
2018-11-27T15:57:50.355Z,-0.10
2018-11-27T16:00:19.553Z,-0.10
2018-11-27T16:02:47.761Z,-0.20
2018-11-27T16:05:17.064Z,-0.20
2018-11-27T16:07:45.276Z,-0.30
2018-11-27T16:10:16.681Z,-0.30
2018-11-27T16:12:44.871Z,-0.30
2018-11-27T16:15:15.072Z,-0.30
2018-11-27T16:17:43.516Z,-0.40
2018-11-27T16:20:15.031Z,-0.40
2018-11-27T16:22:43.746Z,-0.40
2018-11-27T16:25:13.016Z,-0.50
2018-11-27T16:27:41.895Z,-0.60
2018-11-27T16:30:15.212Z,-0.60
2018-11-27T16:32:43.391Z,-0.60
2018-11-27T16:35:12.709Z,-0.70
2018-11-27T16:37:41.461Z,-0.70
2018-11-27T16:40:13.014Z,-0.70
2018-11-27T16:42:42.110Z,-0.80
2018-11-27T16:45:12.761Z,-0.80
2018-11-27T16:47:40.957Z,-0.80
2018-11-27T16:50:10.734Z,-0.80
2018-11-27T16:52:38.988Z,-0.90
2018-11-27T16:55:14.605Z,-0.90
2018-11-27T16:57:42.780Z,-0.90
2018-11-27T17:00:28.602Z,-1.00
2018-11-27T17:02:58.910Z,-1.00
2018-11-27T17:05:28.997Z,-1.10
2018-11-27T17:07:58.025Z,-1.10
2018-11-27T17:10:26.252Z,-1.10
2018-11-27T17:12:56.002Z,-1.20
2018-11-27T17:15:25.472Z,-1.20
2018-11-27T17:17:53.842Z,-1.30
2018-11-27T17:20:33.423Z,-1.30
2018-11-27T17:23:05.322Z,-1.30
2018-11-27T17:25:33.555Z,-1.30
2018-11-27T17:28:23.068Z,-1.40
2018-11-27T17:31:11.049Z,-1.40
2018-11-27T17:33:45.117Z,-1.40
2018-11-27T17:36:13.280Z,-1.50
2018-11-27T17:38:44.713Z,-1.50
2018-11-27T17:41:18.283Z,-1.60
2018-11-27T17:43:47.459Z,-1.60
2018-11-27T17:46:15.624Z,-1.60
2018-11-27T17:48:43.840Z,-1.70
2018-11-27T17:51:12.025Z,-1.70
2018-11-27T17:53:40.184Z,-1.80
2018-11-27T17:56:08.707Z,-1.80
2018-11-27T17:58:36.860Z,-1.80
2018-11-27T18:09:59.149Z,-2.00
2018-11-27T18:12:27.325Z,-2.10
2018-11-27T18:14:56.326Z,-2.10
2018-11-27T18:17:24.521Z,-2.20
2018-11-27T18:19:52.684Z,-2.20
2018-11-27T18:22:21.075Z,-2.20
2018-11-27T18:24:49.256Z,-2.30
2018-11-27T18:27:17.420Z,-2.30
2018-11-27T18:29:45.652Z,-2.30
2018-11-27T18:32:34.065Z,-2.40
2018-11-27T18:35:02.248Z,-2.40
2018-11-27T18:40:27.620Z,-2.50
2018-11-27T18:42:55.777Z,-2.50
2018-11-27T18:45:31.341Z,-2.50
2018-11-27T18:47:59.684Z,-2.60
2018-11-27T18:50:29.281Z,-2.70
2018-11-27T18:52:57.451Z,-2.70
2018-11-27T18:55:25.625Z,-2.70
2018-11-27T18:57:53.814Z,-2.80
2018-11-27T19:00:28.836Z,-2.80
2018-11-27T19:02:57.072Z,-2.80
2018-11-27T19:05:25.251Z,-2.80
2018-11-27T19:07:53.412Z,-2.90
2018-11-27T19:10:25.089Z,-2.90
2018-11-27T19:12:53.537Z,-2.90
2018-11-27T19:15:23.139Z,-3.00
2018-11-27T19:17:53.673Z,-3.00
2018-11-27T19:20:21.858Z,-3.10
2018-11-27T19:22:50.054Z,-3.10
2018-11-27T19:25:18.215Z,-3.20
2018-11-27T19:27:46.425Z,-3.20
2018-11-27T19:30:16.406Z,-3.20
2018-11-27T19:32:44.304Z,-3.20
2018-11-27T19:35:15.001Z,-3.20
2018-11-27T19:37:43.593Z,-3.20
2018-11-27T19:40:13.284Z,-3.10
2018-11-27T19:42:41.766Z,-3.00
2018-11-27T19:45:26.583Z,-2.90
2018-11-27T19:47:55.948Z,-2.70
2018-11-27T19:50:24.114Z,-2.60
2018-11-27T19:52:54.656Z,-2.50
2018-11-27T19:55:22.868Z,-2.40
2018-11-27T19:57:51.092Z,-2.30
2018-11-27T20:00:20.581Z,-2.20
2018-11-27T20:02:48.861Z,-2.10
2018-11-27T20:05:19.060Z,-2.00
2018-11-27T20:07:47.548Z,-1.90
2018-11-27T20:10:16.176Z,-1.90
2018-11-27T20:12:44.571Z,-1.80
2018-11-27T20:15:19.908Z,-1.70
2018-11-27T20:17:48.849Z,-1.70
2018-11-27T20:20:19.157Z,-1.60
2018-11-27T20:22:47.337Z,-1.50
2018-11-27T20:25:17.177Z,-1.50
2018-11-27T20:27:45.397Z,-1.50
2018-11-27T20:30:15.876Z,-1.40
2018-11-27T20:32:45.745Z,-1.40
2018-11-27T20:35:14.853Z,-1.40
2018-11-27T20:37:43.624Z,-1.30
2018-11-27T20:40:13.143Z,-1.30
2018-11-27T20:42:41.332Z,-1.30
2018-11-27T20:45:19.355Z,-1.30
2018-11-27T20:47:44.193Z,-1.30
2018-11-27T20:50:16.595Z,-1.30
2018-11-27T20:52:44.861Z,-1.30
2018-11-27T20:55:13.039Z,-1.30
2018-11-27T20:57:43.286Z,-1.30
2018-11-27T21:00:17.486Z,-1.20
2018-11-27T21:02:46.770Z,-1.20
2018-11-27T21:05:15.031Z,-1.20
2018-11-27T21:07:43.379Z,-1.20
2018-11-27T21:10:12.700Z,-1.10
2018-11-27T21:12:42.540Z,-1.10
2018-11-27T21:15:12.121Z,-1.20
2018-11-27T21:17:40.297Z,-1.20
2018-11-27T21:20:09.994Z,-1.20
2018-11-27T21:22:38.310Z,-1.20
2018-11-27T21:25:09.132Z,-1.20
2018-11-27T21:27:37.325Z,-1.20
2018-11-27T21:30:13.316Z,-1.20
2018-11-27T21:32:41.533Z,-1.10
2018-11-27T21:35:11.805Z,-1.10
2018-11-27T21:37:40.221Z,-1.10
2018-11-27T21:40:24.758Z,-1.10
2018-11-27T21:42:52.944Z,-1.10
2018-11-27T21:45:22.304Z,-1.10
2018-11-27T21:47:57.159Z,-1.20
2018-11-27T21:50:31.793Z,-1.20
2018-11-27T21:53:00.984Z,-1.20
2018-11-27T21:55:29.162Z,-1.20
2018-11-27T21:57:57.348Z,-1.20
2018-11-27T22:00:26.340Z,-1.20
2018-11-27T22:02:54.894Z,-1.20
2018-11-27T22:05:24.169Z,-1.20
2018-11-27T22:07:52.510Z,-1.20
2018-11-27T22:10:22.525Z,-1.10
2018-11-27T22:12:53.140Z,-1.10
2018-11-27T22:15:31.815Z,-1.20
2018-11-27T22:18:00.790Z,-1.20
2018-11-27T22:20:29.502Z,-1.20
2018-11-27T22:22:57.813Z,-1.20
2018-11-27T22:25:27.378Z,-1.20
2018-11-27T22:27:55.789Z,-1.30
2018-11-27T22:30:24.608Z,-1.30
2018-11-27T22:32:53.869Z,-1.30
2018-11-27T22:35:22.324Z,-1.30
2018-11-27T22:37:50.561Z,-1.40
2018-11-27T22:40:23.204Z,-1.30
2018-11-27T22:42:52.421Z,-1.40
2018-11-27T22:45:22.897Z,-1.40
2018-11-27T22:47:51.091Z,-1.30
2018-11-27T22:50:19.662Z,-1.30
2018-11-27T22:52:47.855Z,-1.40
2018-11-27T22:55:16.069Z,-1.40
2018-11-27T22:57:44.300Z,-1.40
2018-11-27T23:00:20.666Z,-1.40
2018-11-27T23:02:49.667Z,-1.40
2018-11-27T23:05:19.103Z,-1.40
2018-11-27T23:07:47.292Z,-1.40
2018-11-27T23:10:15.793Z,-1.30
2018-11-27T23:12:44.229Z,-1.30
2018-11-27T23:15:13.655Z,-1.40
2018-11-27T23:17:42.472Z,-1.40
2018-11-27T23:20:14.913Z,-1.40
2018-11-27T23:22:43.109Z,-1.40
2018-11-27T23:25:15.620Z,-1.40
2018-11-27T23:27:43.949Z,-1.50
2018-11-27T23:30:23.962Z,-1.50
2018-11-27T23:32:52.172Z,-1.50
2018-11-27T23:35:20.383Z,-1.50
2018-11-27T23:37:48.579Z,-1.50
2018-11-27T23:40:17.920Z,-1.50
2018-11-27T23:42:46.689Z,-1.50
2018-11-27T23:45:16.030Z,-1.50
2018-11-27T23:47:44.260Z,-1.60
2018-11-27T23:50:15.827Z,-1.60
2018-11-27T23:52:44.221Z,-1.70
2018-11-27T23:55:13.620Z,-1.70
2018-11-27T23:57:42.181Z,-1.80
